Time;durP1;ratioP1;P1;durP2;ratioP2;P2;SDS_P1;SDS_P2;PMS_P1;PMS_P2;Temp;Humidity;BMP_temperature;BMP_pressure;BME280_temperature;BME280_humidity;BME280_pressure;Samples;Min_cycle;Max_cycle;Signal;HPM_P1;HPM_P2
2022/01/17 00:00:10;;;;;;;22.13;14.57;;;7.90;99.90;;;;;;5012432;28;20194;-75
2022/01/17 00:02:37;;;;;;;26.42;16.70;;;7.90;99.90;;;;;;5015769;28;20561;-75
2022/01/17 00:05:08;;;;;;;23.58;16.65;;;7.90;99.90;;;;;;5016967;28;20253;-75
2022/01/17 00:07:34;;;;;;;24.38;14.52;;;7.90;99.90;;;;;;5030723;28;20182;-75
2022/01/17 00:10:00;;;;;;;25.70;16.23;;;7.90;99.90;;;;;;5037042;28;20194;-75
2022/01/17 00:12:27;;;;;;;23.87;15.47;;;7.90;99.90;;;;;;5018728;28;20196;-75
2022/01/17 00:14:56;;;;;;;23.13;14.65;;;7.90;99.90;;;;;;5036069;28;20209;-75
2022/01/17 00:19:52;;;;;;;20.23;13.20;;;7.90;99.90;;;;;;5033028;28;20190;-75
2022/01/17 00:22:20;;;;;;;26.50;15.25;;;7.90;99.90;;;;;;5032054;28;20177;-76
2022/01/17 00:24:47;;;;;;;21.60;13.30;;;7.80;99.90;;;;;;5032974;28;20170;-75
2022/01/17 00:27:13;;;;;;;22.60;13.40;;;7.80;99.90;;;;;;5032959;28;20170;-75
2022/01/17 00:29:41;;;;;;;18.77;12.70;;;7.80;99.90;;;;;;5015006;28;20217;-76
2022/01/17 00:32:07;;;;;;;20.83;12.80;;;7.80;99.90;;;;;;5031882;28;20166;-76
2022/01/17 00:34:32;;;;;;;20.75;13.07;;;7.80;99.90;;;;;;5032791;28;20663;-75
2022/01/17 00:36:58;;;;;;;17.60;12.13;;;7.80;99.90;;;;;;5031543;28;20269;-75
2022/01/17 00:39:25;;;;;;;18.97;13.20;;;7.70;99.90;;;;;;5031277;28;20655;-76
2022/01/17 00:41:51;;;;;;;19.10;13.23;;;7.70;99.90;;;;;;5032725;28;20615;-76
2022/01/17 00:44:21;;;;;;;22.17;13.05;;;7.70;99.90;;;;;;5031552;28;20173;-75
2022/01/17 00:46:48;;;;;;;16.65;12.18;;;7.70;99.90;;;;;;5032654;28;20173;-75
2022/01/17 00:49:14;;;;;;;19.83;11.80;;;7.80;99.90;;;;;;5031136;28;20212;-75
2022/01/17 00:51:39;;;;;;;18.77;13.00;;;7.80;99.90;;;;;;5016992;28;20174;-75
2022/01/17 00:54:05;;;;;;;21.13;12.47;;;7.80;99.90;;;;;;5012471;28;20600;-75
2022/01/17 00:56:31;;;;;;;17.43;12.10;;;7.70;99.90;;;;;;4995082;28;20975;-76
2022/01/17 00:58:57;;;;;;;17.67;12.90;;;7.70;99.90;;;;;;4994841;28;20170;-76
2022/01/17 01:01:22;;;;;;;18.50;12.30;;;7.70;99.90;;;;;;5012408;28;20894;-75
2022/01/17 01:03:48;;;;;;;22.90;14.53;;;7.70;99.90;;;;;;5012515;28;20166;-75
2022/01/17 01:06:14;;;;;;;20.70;13.40;;;7.70;99.90;;;;;;5012439;28;20488;-74
2022/01/17 01:08:40;;;;;;;21.80;14.47;;;7.70;99.90;;;;;;5012373;28;20177;-75
2022/01/17 01:11:06;;;;;;;19.13;12.93;;;7.70;99.90;;;;;;5012276;28;20600;-75
2022/01/17 01:13:32;;;;;;;20.60;14.75;;;7.70;99.90;;;;;;5010911;28;20596;-75
2022/01/17 01:29:32;;;;;;;18.75;13.80;;;7.70;99.90;;;;;;5011747;28;20214;-74
2022/01/17 01:32:08;;;;;;;21.03;15.50;;;7.70;99.90;;;;;;5010501;28;20170;-75
2022/01/17 01:34:38;;;;;;;23.35;14.70;;;7.70;99.90;;;;;;5018620;28;20626;-74
2022/01/17 01:37:04;;;;;;;21.08;14.38;;;7.70;99.90;;;;;;5030447;28;20528;-75
2022/01/17 01:39:31;;;;;;;24.60;13.50;;;7.70;99.90;;;;;;5030396;28;20247;-75
2022/01/17 01:41:59;;;;;;;20.10;14.02;;;7.70;99.90;;;;;;5031719;28;20655;-75
2022/01/17 01:44:26;;;;;;;18.98;13.25;;;7.70;99.90;;;;;;5031546;28;20181;-75
2022/01/17 01:46:54;;;;;;;20.25;12.90;;;7.80;99.90;;;;;;5030533;28;20166;-75
2022/01/17 01:49:21;;;;;;;22.33;14.55;;;7.80;99.90;;;;;;5013895;28;20189;-75
2022/01/17 01:51:47;;;;;;;19.50;13.15;;;7.80;99.90;;;;;;5031526;28;20220;-75
2022/01/17 01:54:14;;;;;;;19.98;13.65;;;7.80;99.90;;;;;;5030462;28;20252;-75
2022/01/17 01:56:45;;;;;;;23.85;14.05;;;7.80;99.90;;;;;;5031567;28;20599;-75
2022/01/17 01:59:12;;;;;;;21.90;13.02;;;7.80;99.90;;;;;;5030077;28;20194;-75
2022/01/17 02:01:38;;;;;;;23.90;14.65;;;7.80;99.90;;;;;;5030366;28;20189;-74
2022/01/17 02:04:04;;;;;;;24.95;15.02;;;7.90;99.90;;;;;;5031406;28;20184;-74
2022/01/17 02:06:32;;;;;;;20.85;15.10;;;7.90;99.90;;;;;;5030294;28;20183;-75
2022/01/17 02:09:00;;;;;;;25.42;15.10;;;7.90;99.90;;;;;;5030165;28;20642;-75
2022/01/17 02:11:26;;;;;;;24.92;15.00;;;7.90;99.90;;;;;;5031457;28;20169;-74
2022/01/17 02:13:52;;;;;;;21.93;14.50;;;7.90;99.90;;;;;;5022468;28;20538;-74
2022/01/17 02:16:21;;;;;;;25.38;14.98;;;7.90;99.90;;;;;;5010556;28;20193;-74
2022/01/17 02:18:48;;;;;;;22.05;15.15;;;8.00;99.90;;;;;;4993945;28;20180;-74
2022/01/17 02:23:45;;;;;;;25.02;16.88;;;8.00;99.90;;;;;;5010389;28;20224;-75
2022/01/17 02:26:12;;;;;;;23.52;15.45;;;8.00;99.90;;;;;;4993989;28;20220;-75
2022/01/17 02:28:43;;;;;;;29.77;17.98;;;8.00;99.90;;;;;;5010205;28;20552;-74
2022/01/17 02:31:09;;;;;;;26.23;16.02;;;8.00;99.90;;;;;;5026709;28;20195;-75
2022/01/17 02:33:35;;;;;;;23.67;16.00;;;8.00;99.90;;;;;;5011495;28;20718;-74
2022/01/17 02:36:01;;;;;;;22.80;15.73;;;8.00;99.90;;;;;;5010208;28;20198;-74
2022/01/17 02:38:28;;;;;;;22.52;16.02;;;8.00;99.90;;;;;;5011455;28;20205;-74
2022/01/17 02:40:54;;;;;;;18.95;14.27;;;8.00;99.90;;;;;;5010259;28;20194;-75
2022/01/17 02:43:21;;;;;;;24.15;16.73;;;8.00;99.90;;;;;;5013784;28;20175;-74
2022/01/17 02:48:18;;;;;;;24.35;16.67;;;8.00;99.90;;;;;;5015079;28;20670;-75
2022/01/17 02:50:43;;;;;;;24.08;16.63;;;8.00;99.90;;;;;;5030036;28;20186;-75
2022/01/17 02:53:10;;;;;;;26.80;16.97;;;8.10;99.90;;;;;;5013699;28;20174;-75
2022/01/17 02:55:38;;;;;;;26.67;16.48;;;8.00;99.90;;;;;;5014737;28;20205;-75
2022/01/17 02:58:03;;;;;;;25.65;16.00;;;8.10;99.90;;;;;;5014852;28;20167;-74
2022/01/17 03:00:29;;;;;;;25.83;16.57;;;8.10;99.90;;;;;;4997195;28;20194;-75
2022/01/17 03:02:55;;;;;;;24.20;16.40;;;8.10;99.90;;;;;;5014573;28;20175;-74
2022/01/17 03:05:21;;;;;;;24.17;17.10;;;8.10;99.90;;;;;;5013392;28;20178;-74
2022/01/17 03:07:49;;;;;;;25.27;16.98;;;8.20;99.90;;;;;;5014655;28;20246;-75
2022/01/17 03:13:07;;;;;;;22.55;15.98;;;8.20;99.90;;;;;;5003309;28;20198;-74
2022/01/17 03:15:33;;;;;;;23.02;17.33;;;8.20;99.90;;;;;;5014109;28;20276;-74
2022/01/17 03:17:59;;;;;;;25.98;17.15;;;8.20;99.90;;;;;;5014440;28;20674;-75
2022/01/17 03:20:25;;;;;;;26.65;18.90;;;8.20;99.90;;;;;;5013025;28;20233;-75
2022/01/17 03:22:50;;;;;;;28.83;19.53;;;8.30;99.90;;;;;;5014473;28;20566;-75
2022/01/17 03:25:16;;;;;;;24.47;18.00;;;8.30;99.90;;;;;;5014438;28;20176;-75
2022/01/17 03:27:42;;;;;;;30.37;18.67;;;8.30;99.90;;;;;;5014075;28;20174;-75
2022/01/17 03:30:08;;;;;;;27.13;18.67;;;8.30;99.90;;;;;;5014098;28;20561;-75
2022/01/17 03:32:33;;;;;;;27.98;18.98;;;8.30;99.90;;;;;;5012962;28;20174;-75
2022/01/17 03:35:00;;;;;;;28.60;20.77;;;8.30;99.90;;;;;;5012832;28;20228;-75
2022/01/17 03:37:27;;;;;;;28.10;17.65;;;8.30;99.90;;;;;;4996648;28;20642;-75
2022/01/17 03:39:53;;;;;;;30.60;17.67;;;8.30;99.90;;;;;;4996448;28;20840;-75
2022/01/17 03:42:19;;;;;;;24.77;18.53;;;8.30;99.90;;;;;;5014023;28;20208;-75
2022/01/17 03:44:45;;;;;;;28.17;18.90;;;8.30;99.90;;;;;;5012829;28;20526;-75
2022/01/17 03:47:11;;;;;;;27.98;19.27;;;8.30;99.90;;;;;;5012774;28;20569;-75
2022/01/17 03:49:37;;;;;;;26.25;18.10;;;8.40;99.90;;;;;;5029159;28;20197;-75
2022/01/17 03:52:03;;;;;;;26.27;18.00;;;8.40;99.90;;;;;;5013867;28;20166;-75
2022/01/17 03:54:31;;;;;;;28.15;19.67;;;8.30;99.90;;;;;;5013202;28;20391;-75
2022/01/17 03:56:57;;;;;;;28.77;20.52;;;8.40;99.90;;;;;;5012589;28;20280;-75
2022/01/17 03:59:23;;;;;;;27.95;19.13;;;8.30;99.90;;;;;;5013697;28;20178;-74
2022/01/17 04:01:49;;;;;;;32.23;19.90;;;8.40;99.90;;;;;;5013757;28;20254;-75
2022/01/17 04:04:15;;;;;;;27.57;19.17;;;8.40;99.90;;;;;;5013546;28;20915;-74
2022/01/17 04:06:41;;;;;;;26.13;17.67;;;8.40;99.90;;;;;;5013618;28;20563;-75
2022/01/17 04:09:07;;;;;;;28.00;19.90;;;8.40;99.90;;;;;;5013307;28;21102;-75
2022/01/17 04:11:32;;;;;;;33.07;20.37;;;8.40;99.90;;;;;;5013585;28;20174;-75
2022/01/17 04:13:58;;;;;;;23.48;17.63;;;8.40;99.90;;;;;;5012620;28;20592;-75
2022/01/17 04:16:24;;;;;;;27.77;18.53;;;8.40;99.90;;;;;;5012167;28;20254;-74
2022/01/17 04:18:50;;;;;;;29.80;19.60;;;8.40;99.90;;;;;;4995671;28;20178;-75
2022/01/17 04:21:16;;;;;;;25.93;19.03;;;8.40;99.90;;;;;;5013607;28;20182;-75
2022/01/17 04:23:41;;;;;;;24.90;19.20;;;8.40;99.90;;;;;;5013478;28;20663;-74
2022/01/17 04:26:07;;;;;;;26.90;19.17;;;8.40;99.90;;;;;;5013199;28;20217;-74
2022/01/17 04:28:33;;;;;;;27.60;19.20;;;8.40;99.90;;;;;;5012967;28;20186;-74
2022/01/17 04:30:59;;;;;;;25.23;17.43;;;8.30;99.90;;;;;;5011805;28;20584;-74
2022/01/17 04:33:25;;;;;;;22.15;16.52;;;8.30;99.90;;;;;;5013166;28;20755;-74
2022/01/17 04:35:51;;;;;;;22.83;16.87;;;8.30;99.90;;;;;;5014986;28;20210;-75
2022/01/17 04:38:18;;;;;;;29.13;17.23;;;8.30;99.90;;;;;;5031166;28;20260;-74
2022/01/17 04:40:47;;;;;;;26.63;17.88;;;8.30;99.90;;;;;;5031206;28;20604;-74
2022/01/17 04:43:33;;;;;;;27.55;18.48;;;8.20;99.90;;;;;;5032666;28;20166;-74
2022/01/17 04:45:59;;;;;;;26.00;16.80;;;8.20;99.90;;;;;;5031387;28;20193;-75
2022/01/17 04:48:26;;;;;;;25.37;16.27;;;8.20;99.90;;;;;;5031424;28;20180;-74
2022/01/17 04:50:52;;;;;;;30.10;17.40;;;8.20;99.90;;;;;;5032448;28;20641;-75
2022/01/17 04:53:20;;;;;;;22.63;15.73;;;8.20;99.90;;;;;;5032507;28;20166;-75
2022/01/17 04:55:47;;;;;;;26.48;16.98;;;8.20;99.90;;;;;;5014512;28;20205;-75
2022/01/17 04:58:14;;;;;;;20.95;14.90;;;8.20;99.90;;;;;;5032401;28;20271;-75
2022/01/17 05:00:46;;;;;;;25.80;16.40;;;8.20;99.90;;;;;;5032217;28;20204;-75
2022/01/17 05:03:16;;;;;;;23.50;16.10;;;8.20;99.90;;;;;;5032557;28;20181;-75
2022/01/17 05:05:42;;;;;;;24.75;16.73;;;8.20;99.90;;;;;;5031391;28;20204;-75
2022/01/17 05:08:08;;;;;;;22.40;16.03;;;8.20;99.90;;;;;;5031073;28;20204;-74
2022/01/17 05:10:34;;;;;;;25.25;16.70;;;8.30;99.90;;;;;;5031892;28;21031;-74
2022/01/17 05:13:00;;;;;;;23.10;16.00;;;8.30;99.90;;;;;;5032110;28;20256;-74
2022/01/17 05:15:38;;;;;;;23.80;17.40;;;8.30;99.90;;;;;;5031945;28;20707;-74
2022/01/17 05:20:32;;;;;;;23.27;15.88;;;8.30;99.90;;;;;;5031821;28;20231;-74
2022/01/17 05:22:58;;;;;;;27.00;17.33;;;8.30;99.90;;;;;;5031851;28;20190;-74
2022/01/17 05:25:24;;;;;;;25.50;16.30;;;8.30;99.90;;;;;;5031774;28;20697;-75
2022/01/17 05:27:50;;;;;;;24.27;16.30;;;8.30;99.90;;;;;;5031727;28;20569;-74
2022/01/17 05:30:18;;;;;;;26.05;16.67;;;8.30;99.90;;;;;;5031751;28;20201;-75
2022/01/17 05:32:44;;;;;;;20.55;15.43;;;8.30;99.90;;;;;;5031686;28;20166;-73
2022/01/17 05:35:10;;;;;;;24.10;16.20;;;8.30;99.90;;;;;;5031836;28;20201;-74
2022/01/17 05:37:36;;;;;;;22.20;17.25;;;8.30;99.90;;;;;;5031607;28;20572;-74
2022/01/17 05:40:03;;;;;;;22.83;16.53;;;8.40;99.90;;;;;;5030410;28;20561;-75
2022/01/17 05:42:30;;;;;;;26.58;16.45;;;8.40;99.90;;;;;;5031752;28;20681;-75
2022/01/17 05:44:55;;;;;;;25.60;16.30;;;8.40;99.90;;;;;;5031304;28;20170;-74
2022/01/17 05:47:22;;;;;;;21.70;15.13;;;8.40;99.90;;;;;;5031574;28;20169;-75
2022/01/17 05:49:48;;;;;;;23.23;17.40;;;8.40;99.90;;;;;;5031409;28;20284;-75
2022/01/17 05:52:14;;;;;;;28.52;17.25;;;8.50;99.90;;;;;;5031666;28;20251;-74
2022/01/17 05:54:41;;;;;;;25.85;15.32;;;8.40;99.90;;;;;;5031818;28;20220;-75
2022/01/17 05:57:08;;;;;;;27.52;16.67;;;8.40;99.90;;;;;;5031527;28;20197;-74
2022/01/17 05:59:34;;;;;;;23.83;17.60;;;8.40;99.90;;;;;;5031519;28;20645;-75
2022/01/17 06:01:59;;;;;;;24.00;15.37;;;8.40;99.90;;;;;;5030400;28;20256;-75
2022/01/17 06:04:25;;;;;;;26.73;17.73;;;8.40;99.90;;;;;;5031533;28;20561;-75
2022/01/17 06:06:51;;;;;;;20.80;15.35;;;8.40;99.90;;;;;;5030305;28;20189;-74
2022/01/17 06:09:17;;;;;;;27.80;18.13;;;8.40;99.90;;;;;;5030023;28;20197;-75
2022/01/17 06:11:43;;;;;;;26.80;16.47;;;8.40;99.90;;;;;;5030302;28;20666;-74
2022/01/17 06:14:09;;;;;;;20.87;15.23;;;8.40;99.90;;;;;;5030269;28;20638;-75
2022/01/17 06:16:36;;;;;;;25.25;16.52;;;8.40;99.90;;;;;;5014643;28;20624;-75
2022/01/17 06:19:03;;;;;;;24.00;16.30;;;8.40;99.90;;;;;;5035325;28;20173;-75
2022/01/17 06:21:29;;;;;;;23.42;15.88;;;8.40;99.90;;;;;;5034041;28;20174;-75
2022/01/17 06:23:55;;;;;;;18.50;14.03;;;8.40;99.90;;;;;;5035301;28;20673;-74
2022/01/17 06:26:21;;;;;;;23.60;14.40;;;8.40;99.90;;;;;;5034013;28;20169;-75
2022/01/17 06:28:46;;;;;;;26.02;15.25;;;8.50;99.90;;;;;;5035102;28;20182;-74
2022/01/17 06:31:12;;;;;;;22.83;15.60;;;8.50;99.90;;;;;;5034944;28;20201;-74
2022/01/17 06:33:38;;;;;;;19.00;14.10;;;8.50;99.90;;;;;;5034989;28;20189;-74
2022/01/17 06:36:04;;;;;;;23.00;14.00;;;8.50;99.90;;;;;;5033680;28;20561;-75
2022/01/17 06:38:30;;;;;;;19.48;13.20;;;8.50;99.90;;;;;;5033607;28;20254;-75
2022/01/17 06:40:56;;;;;;;20.20;14.53;;;8.50;99.90;;;;;;5025455;28;20749;-75
2022/01/17 06:43:22;;;;;;;22.90;18.20;;;8.50;99.90;;;;;;5032463;28;20750;-75
2022/01/17 06:45:47;;;;;;;24.48;16.40;;;8.40;99.90;;;;;;5034566;28;20248;-74
2022/01/17 06:48:13;;;;;;;22.60;14.67;;;8.40;99.90;;;;;;5021645;28;20657;-75
2022/01/17 06:50:39;;;;;;;22.47;14.67;;;8.50;99.90;;;;;;5013424;28;20612;-75
2022/01/17 06:53:05;;;;;;;20.60;15.10;;;8.50;99.90;;;;;;5014898;28;20664;-75
2022/01/17 06:55:31;;;;;;;21.23;14.17;;;8.60;99.90;;;;;;5013301;28;20205;-74
2022/01/17 06:57:56;;;;;;;19.20;14.27;;;8.60;99.90;;;;;;5023769;28;20659;-76
2022/01/17 07:00:22;;;;;;;18.47;13.27;;;8.60;99.90;;;;;;5025130;28;20638;-77
2022/01/17 07:02:49;;;;;;;20.63;13.80;;;8.60;99.90;;;;;;5024603;28;20570;-76
2022/01/17 07:05:15;;;;;;;21.98;13.55;;;8.60;99.90;;;;;;4997414;28;20182;-77
2022/01/17 07:07:41;;;;;;;19.40;14.05;;;8.70;99.90;;;;;;5023792;28;20684;-76
2022/01/17 07:10:07;;;;;;;19.40;13.80;;;8.70;99.90;;;;;;5022831;28;20201;-76
2022/01/17 07:12:36;;;;;;;21.80;14.57;;;8.60;99.90;;;;;;5022326;28;20190;-76
2022/01/17 07:15:05;;;;;;;23.92;13.95;;;8.60;99.90;;;;;;5030228;28;20555;-76
2022/01/17 07:17:31;;;;;;;21.90;15.25;;;8.60;99.90;;;;;;5019665;28;20205;-76
2022/01/17 07:19:57;;;;;;;19.50;14.87;;;8.60;99.90;;;;;;5006349;28;20244;-76
2022/01/17 07:22:23;;;;;;;21.30;14.63;;;8.60;99.90;;;;;;5022135;28;20170;-76
2022/01/17 07:24:49;;;;;;;23.00;14.02;;;8.60;99.90;;;;;;5022303;28;20509;-77
2022/01/17 07:27:16;;;;;;;19.90;16.35;;;8.60;99.90;;;;;;5024852;28;20710;-77
2022/01/17 07:29:42;;;;;;;21.33;16.52;;;8.60;99.90;;;;;;5023283;28;20939;-75
2022/01/17 07:32:09;;;;;;;22.55;15.80;;;8.60;99.90;;;;;;5030173;28;20227;-75
2022/01/17 07:34:35;;;;;;;22.67;14.98;;;8.60;99.90;;;;;;5018792;28;20261;-76
2022/01/17 07:37:01;;;;;;;22.80;14.83;;;8.60;99.90;;;;;;5034533;28;20249;-76
2022/01/17 07:39:27;;;;;;;25.97;15.63;;;8.70;99.90;;;;;;5033518;28;20197;-74
2022/01/17 07:41:53;;;;;;;19.67;14.73;;;8.70;99.90;;;;;;5013544;28;20554;-73
2022/01/17 07:44:24;;;;;;;19.67;14.85;;;8.60;99.90;;;;;;5029406;28;20574;-73
2022/01/17 07:46:59;;;;;;;21.25;14.85;;;8.70;99.90;;;;;;5013037;28;20178;-73
2022/01/17 07:49:26;;;;;;;20.52;15.70;;;8.70;99.90;;;;;;5013958;28;20252;-73
2022/01/17 07:51:59;;;;;;;20.45;13.52;;;8.70;99.90;;;;;;5013446;28;20175;-74
2022/01/17 07:54:30;;;;;;;21.98;15.05;;;8.70;99.90;;;;;;5028714;28;20179;-74
2022/01/17 07:56:59;;;;;;;19.27;15.48;;;8.70;99.90;;;;;;5013548;28;20194;-73
2022/01/17 07:59:25;;;;;;;20.50;15.20;;;8.70;99.90;;;;;;5013487;28;20256;-73
2022/01/17 08:01:51;;;;;;;19.67;14.40;;;8.70;99.90;;;;;;5013419;28;20166;-73
2022/01/17 08:04:17;;;;;;;21.63;14.67;;;8.70;99.90;;;;;;5013497;28;20176;-73
2022/01/17 08:06:43;;;;;;;23.83;16.83;;;8.80;99.90;;;;;;5020813;28;20575;-74
2022/01/17 08:09:20;;;;;;;25.30;14.83;;;8.70;99.90;;;;;;5032977;28;20200;-73
2022/01/17 08:11:46;;;;;;;19.55;15.23;;;8.80;99.90;;;;;;5033004;28;20170;-74
2022/01/17 08:14:12;;;;;;;21.00;15.47;;;8.80;99.90;;;;;;5031764;28;20235;-74
2022/01/17 08:16:38;;;;;;;28.23;16.77;;;8.80;99.90;;;;;;5031547;28;20616;-73
2022/01/17 08:19:04;;;;;;;22.83;15.50;;;8.80;99.90;;;;;;5032784;28;20575;-73
2022/01/17 08:21:30;;;;;;;21.90;14.60;;;8.80;99.90;;;;;;5031423;28;20568;-73
2022/01/17 08:23:55;;;;;;;24.30;15.93;;;8.90;99.90;;;;;;5032830;28;20260;-74
2022/01/17 08:26:21;;;;;;;22.07;14.90;;;8.90;99.90;;;;;;5032834;28;20178;-74
2022/01/17 08:28:48;;;;;;;21.95;14.77;;;8.90;99.90;;;;;;5015209;28;20185;-73
2022/01/17 08:31:14;;;;;;;20.45;15.07;;;8.90;99.90;;;;;;5031739;28;20189;-74
2022/01/17 08:33:40;;;;;;;21.83;13.15;;;9.00;99.90;;;;;;5031439;28;20181;-73
2022/01/17 08:36:07;;;;;;;19.60;14.05;;;9.00;99.90;;;;;;5015533;28;20215;-73
2022/01/17 08:38:35;;;;;;;20.83;15.20;;;9.00;99.90;;;;;;5032863;28;20170;-73
2022/01/17 08:41:01;;;;;;;23.92;14.05;;;9.10;99.90;;;;;;5032773;28;20190;-73
2022/01/17 08:43:27;;;;;;;21.60;16.07;;;9.10;99.90;;;;;;5031890;28;20170;-73
2022/01/17 08:45:53;;;;;;;18.50;14.50;;;9.10;99.90;;;;;;5032997;28;20565;-73
2022/01/17 08:48:20;;;;;;;23.45;14.63;;;9.10;99.90;;;;;;5031499;28;20180;-74
2022/01/17 08:50:47;;;;;;;18.70;12.68;;;9.20;99.90;;;;;;5032179;28;20288;-73
2022/01/17 08:53:14;;;;;;;22.05;14.90;;;9.20;99.90;;;;;;5031303;28;20219;-73
2022/01/17 08:55:43;;;;;;;22.42;14.05;;;9.30;99.90;;;;;;5031153;28;20198;-73
2022/01/17 08:58:10;;;;;;;23.13;14.23;;;9.30;99.90;;;;;;5032415;28;20166;-73
2022/01/17 09:00:37;;;;;;;20.98;13.43;;;9.20;99.90;;;;;;5031127;28;20189;-73
2022/01/17 09:03:03;;;;;;;24.50;15.23;;;9.20;99.90;;;;;;5032322;28;20532;-73
2022/01/17 09:05:30;;;;;;;19.95;15.32;;;9.20;99.90;;;;;;5030843;28;20933;-73
2022/01/17 09:07:56;;;;;;;26.42;15.35;;;9.20;99.90;;;;;;5021360;28;20552;-72
2022/01/17 09:10:23;;;;;;;25.45;17.35;;;9.20;99.90;;;;;;5011911;28;20194;-74
2022/01/17 09:12:51;;;;;;;23.63;15.57;;;9.10;99.90;;;;;;5010969;28;20163;-73
2022/01/17 09:15:17;;;;;;;26.73;17.40;;;9.20;99.90;;;;;;5012174;28;20206;-73
2022/01/17 09:17:44;;;;;;;22.10;16.58;;;9.10;99.90;;;;;;5027411;28;20171;-73
2022/01/17 09:20:10;;;;;;;24.65;17.42;;;9.10;99.90;;;;;;5012137;28;20538;-74
2022/01/17 09:22:37;;;;;;;26.88;18.88;;;9.10;99.90;;;;;;5012175;28;20249;-74
2022/01/17 09:25:06;;;;;;;27.85;18.42;;;9.10;99.90;;;;;;5011269;28;20270;-73
2022/01/17 09:27:33;;;;;;;28.05;18.70;;;9.10;99.90;;;;;;5011813;28;20173;-73
2022/01/17 09:29:59;;;;;;;24.95;19.50;;;9.10;99.90;;;;;;5027062;28;20213;-73
2022/01/17 09:32:25;;;;;;;24.27;17.80;;;9.10;99.90;;;;;;5012120;28;20162;-73
2022/01/17 09:34:50;;;;;;;24.70;18.43;;;9.00;99.90;;;;;;4994545;28;20672;-73
2022/01/17 09:37:16;;;;;;;23.20;16.33;;;9.00;99.90;;;;;;5013559;28;20225;-74
2022/01/17 09:39:42;;;;;;;24.13;17.77;;;9.00;99.90;;;;;;5011689;28;20190;-73
2022/01/17 09:42:09;;;;;;;26.10;18.20;;;9.00;99.90;;;;;;5010750;28;20662;-73
2022/01/17 09:44:35;;;;;;;20.50;16.50;;;9.10;99.90;;;;;;5011739;28;20557;-73
2022/01/17 09:47:06;;;;;;;25.10;16.85;;;9.10;99.90;;;;;;5011761;28;20170;-73
2022/01/17 09:49:37;;;;;;;24.13;17.38;;;9.20;99.90;;;;;;5011690;28;20201;-73
2022/01/17 09:52:14;;;;;;;25.70;17.33;;;9.40;99.90;;;;;;5021475;28;20240;-74
2022/01/17 09:54:45;;;;;;;24.10;17.20;;;9.50;99.90;;;;;;5030199;28;20178;-73
2022/01/17 09:57:13;;;;;;;26.10;18.45;;;9.60;99.90;;;;;;5018773;28;20201;-72
2022/01/17 09:59:41;;;;;;;24.20;17.42;;;9.70;99.90;;;;;;5019364;28;20190;-73
2022/01/17 10:02:07;;;;;;;24.25;19.02;;;9.70;99.90;;;;;;5019542;28;20186;-72
2022/01/17 10:04:34;;;;;;;26.25;18.40;;;9.80;99.90;;;;;;5017705;28;20185;-73
2022/01/17 10:11:17;;;;;;;21.15;15.55;;;9.90;99.90;;;;;;4972370;28;20184;-74
2022/01/17 10:13:45;;;;;;;20.70;15.07;;;9.90;99.90;;;;;;5030960;28;20542;-73
2022/01/17 10:16:20;;;;;;;23.23;16.55;;;9.90;99.90;;;;;;5030050;28;20201;-73
2022/01/17 10:19:00;;;;;;;18.85;15.60;;;9.90;99.90;;;;;;5031316;28;20219;-74
2022/01/17 10:21:35;;;;;;;21.33;17.58;;;9.90;99.90;;;;;;5030971;28;20256;-73
2022/01/17 10:24:26;;;;;;;23.35;17.92;;;9.90;99.90;;;;;;5031206;28;20750;-73
2022/01/17 10:35:26;;;;;;;25.95;18.45;;;10.00;99.90;;;;;;5011255;28;20198;-73
2022/01/17 10:38:11;;;;;;;26.00;18.83;;;10.00;99.90;;;;;;5010170;28;20253;-73
2022/01/17 10:40:45;;;;;;;28.13;18.60;;;10.00;99.90;;;;;;4993473;28;20194;-73
2022/01/17 10:43:25;;;;;;;18.58;15.05;;;10.00;99.90;;;;;;5011487;28;20169;-73
2022/01/17 10:45:53;;;;;;;18.63;14.80;;;10.00;99.90;;;;;;5011424;28;20168;-73
2022/01/17 10:48:19;;;;;;;23.98;18.33;;;10.20;99.90;;;;;;5029485;28;20189;-73
2022/01/17 10:50:51;;;;;;;19.50;15.57;;;10.30;99.90;;;;;;5030453;28;20553;-74
2022/01/17 10:53:17;;;;;;;21.60;17.05;;;10.30;99.90;;;;;;5026516;28;20170;-73
2022/01/17 10:55:49;;;;;;;23.58;16.67;;;10.40;99.90;;;;;;5009866;28;20327;-73
2022/01/17 10:58:28;;;;;;;21.58;17.80;;;10.50;99.90;;;;;;5009959;28;20244;-73
2022/01/17 11:01:09;;;;;;;21.67;16.20;;;10.50;99.90;;;;;;5009520;28;20659;-73
2022/01/17 11:03:35;;;;;;;20.80;15.25;;;10.60;99.90;;;;;;5011899;28;20224;-73
2022/01/17 11:06:05;;;;;;;22.83;17.73;;;10.60;99.90;;;;;;5014631;28;20229;-73
2022/01/17 11:08:33;;;;;;;26.88;18.08;;;10.60;99.90;;;;;;5020352;28;20178;-73
2022/01/17 11:11:01;;;;;;;20.85;17.23;;;10.60;99.90;;;;;;5033949;28;20693;-73
2022/01/17 11:13:32;;;;;;;20.63;17.30;;;10.50;99.90;;;;;;5028715;28;20225;-73
2022/01/17 11:16:12;;;;;;;24.23;18.48;;;10.50;99.90;;;;;;5014212;28;20202;-73
2022/01/17 11:18:41;;;;;;;25.70;18.58;;;10.50;99.90;;;;;;5029557;28;20261;-72
2022/01/17 11:21:14;;;;;;;22.45;17.25;;;10.40;99.90;;;;;;4996368;28;20202;-75
2022/01/17 11:23:45;;;;;;;19.33;15.02;;;10.40;99.90;;;;;;5012938;28;20526;-73
2022/01/17 11:26:12;;;;;;;21.60;17.00;;;10.30;99.90;;;;;;5014117;28;20182;-73
2022/01/17 11:28:39;;;;;;;20.42;17.48;;;10.30;99.90;;;;;;5021959;28;20212;-73
2022/01/17 11:31:08;;;;;;;24.30;19.30;;;10.30;99.90;;;;;;5029759;28;20197;-72
2022/01/17 11:33:35;;;;;;;23.27;18.25;;;10.30;99.90;;;;;;5013773;28;20178;-73
2022/01/17 11:36:02;;;;;;;22.10;17.08;;;10.30;99.90;;;;;;5031829;28;20220;-73
2022/01/17 11:38:34;;;;;;;23.30;17.60;;;10.20;99.90;;;;;;5018706;28;20606;-73
2022/01/17 11:41:01;;;;;;;26.45;17.45;;;10.20;99.90;;;;;;4995838;28;20214;-73
2022/01/17 11:43:36;;;;;;;27.60;19.88;;;10.20;99.90;;;;;;5013854;28;20166;-73
2022/01/17 11:46:17;;;;;;;22.20;17.05;;;10.20;99.90;;;;;;5023771;28;20642;-73
2022/01/17 11:48:57;;;;;;;21.10;16.70;;;10.10;99.90;;;;;;5033582;28;20231;-73
2022/01/17 11:51:23;;;;;;;21.60;16.75;;;10.10;99.90;;;;;;5011889;28;20185;-73
2022/01/17 11:53:54;;;;;;;19.73;16.33;;;10.10;99.90;;;;;;5012410;28;20601;-73
2022/01/17 11:56:46;;;;;;;30.33;17.92;;;10.10;99.90;;;;;;5013593;28;20613;-73
2022/01/17 11:59:39;;;;;;;21.95;16.75;;;10.10;99.90;;;;;;5023701;28;20201;-73
2022/01/17 12:02:37;;;;;;;19.30;17.17;;;10.10;99.90;;;;;;5033465;28;20193;-74
2022/01/17 12:05:03;;;;;;;22.98;17.23;;;10.10;99.90;;;;;;4988831;28;20173;-73
2022/01/17 12:07:36;;;;;;;20.77;16.67;;;10.10;99.90;;;;;;5042776;28;20189;-73
2022/01/17 12:10:16;;;;;;;21.25;17.42;;;10.00;99.90;;;;;;5052764;28;20185;-73
2022/01/17 12:13:03;;;;;;;20.35;18.17;;;10.00;99.90;;;;;;5035558;28;20181;-73
2022/01/17 12:15:35;;;;;;;18.58;15.05;;;10.00;99.90;;;;;;5046508;28;20211;-73
2022/01/17 12:18:31;;;;;;;19.52;14.60;;;10.00;99.90;;;;;;5050738;28;20822;-73
2022/01/17 12:21:15;;;;;;;22.23;15.27;;;9.90;99.90;;;;;;5051452;28;20692;-73
2022/01/17 12:23:40;;;;;;;21.15;15.70;;;9.90;99.90;;;;;;5051292;28;20165;-74
2022/01/17 12:26:27;;;;;;;16.27;13.40;;;9.90;99.90;;;;;;5050064;28;20227;-74
2022/01/17 12:28:59;;;;;;;19.48;15.25;;;9.90;99.90;;;;;;5041001;28;20197;-72
2022/01/17 12:31:42;;;;;;;19.90;15.65;;;9.90;99.90;;;;;;5022676;28;20189;-72
2022/01/17 12:34:24;;;;;;;21.50;16.13;;;9.90;99.90;;;;;;5021401;28;20285;-73
2022/01/17 12:36:58;;;;;;;20.80;14.90;;;9.90;99.90;;;;;;5029430;28;20201;-72
2022/01/17 12:39:27;;;;;;;20.27;14.45;;;9.90;99.90;;;;;;5029439;28;20205;-73
2022/01/17 12:41:59;;;;;;;20.65;14.48;;;9.90;99.90;;;;;;5026105;28;20548;-72
2022/01/17 12:44:27;;;;;;;21.95;15.05;;;9.90;99.90;;;;;;5027568;28;20182;-72
2022/01/17 12:46:56;;;;;;;20.88;16.05;;;9.90;99.90;;;;;;5012883;28;20173;-73
2022/01/17 12:49:23;;;;;;;18.33;14.00;;;9.90;99.90;;;;;;5012525;28;20190;-73
2022/01/17 12:51:55;;;;;;;18.35;14.20;;;9.90;99.90;;;;;;5012372;28;20177;-73
2022/01/17 12:54:28;;;;;;;18.67;14.35;;;9.90;99.90;;;;;;5011535;28;20264;-73
2022/01/17 12:56:56;;;;;;;20.05;14.48;;;10.00;99.90;;;;;;5030148;28;20194;-73
2022/01/17 12:59:23;;;;;;;20.40;14.95;;;10.00;99.90;;;;;;5031075;28;20208;-73
2022/01/17 13:01:51;;;;;;;20.55;15.85;;;10.00;99.90;;;;;;5030934;28;20174;-73
2022/01/17 13:04:18;;;;;;;22.42;15.50;;;10.00;99.90;;;;;;5032135;28;20216;-73
2022/01/17 13:06:47;;;;;;;18.52;14.82;;;10.00;99.90;;;;;;5030844;28;20584;-73
2022/01/17 13:09:15;;;;;;;18.90;15.32;;;10.00;99.90;;;;;;5030783;28;20197;-73
2022/01/17 13:11:42;;;;;;;17.75;14.75;;;10.00;99.90;;;;;;5030070;28;20216;-73
2022/01/17 13:14:09;;;;;;;20.42;15.07;;;10.00;99.90;;;;;;5032094;28;20193;-73
2022/01/17 13:16:38;;;;;;;17.92;14.20;;;10.00;99.90;;;;;;5030850;28;20209;-73
2022/01/17 13:19:06;;;;;;;24.27;15.82;;;10.00;99.90;;;;;;5030814;28;20651;-73